Main page
METAR-TAF:

METAR-TAF

Airports :

Suceava International Airport

Suceava, Romania

latitude: 47-39N, longitude: 026-15E, elevation: 351 m

Current weather observation

The report was made 28 minutes ago, at 23:00 UTC
Wind 12 kt from the North
Temperature 16°C
Humidity 94%
Pressure 1023 hPa
Visibility 10 km or more
Scattered clouds at a height of 2000 ft
Broken clouds at a height of 3000 ft
light rain

METAR: LRSV 092300Z 35012KT 9999 -RA SCT020 BKN030 16/15 Q1023

Time: 02:28 (23:28 UTC)

Forecast

The report was made 3 hours and 28 minutes ago, at 20:00 UTC
Forecast valid from 09 at 21 UTC to 10 at 06 UTC
Wind 12 kt from the North/Northwest
Visibility 10 km or more
Scattered clouds at a height of 1500 ft
Broken clouds at a height of 3500 ft
Temporary
from 09 at 21 UTC to 10 at 03 UTC
Visibility: 5000 m
Broken clouds at a height of 500 ft
Broken clouds at a height of 3000 ft
light rain, mist

TAF: LRSV 092000Z 0921/1006 33012KT 9999 SCT015 BKN035 TEMPO 0921/1003 5000 -RA BR BKN005 BKN030

Weather observations and forecasts of more than 4000 airports (METAR and TAF reports).

The available stations are represented by yellow and red dots on the map.

Hover mouse over dot to see the name of the station.

Then click to see weather observations and forecasts.

To change the map : click on the green buttons with a black cross to zoom in, on the green button with a dash to zoom out, or on the green arrows for adjacent maps.


METAR-TAF: